Time;durP1;ratioP1;P1;durP2;ratioP2;P2;SDS_P1;SDS_P2;PMS_P1;PMS_P2;Temp;Humidity;BMP_temperature;BMP_pressure;BME280_temperature;BME280_humidity;BME280_pressure;Samples;Min_cycle;Max_cycle;Signal;HPM_P1;HPM_P2
2023/08/27 00:00:11;;;;;;;4.20;3.70;;;17.70;99.90;;;;;;5051165;28;20202;-61
2023/08/27 00:02:39;;;;;;;5.60;3.78;;;17.80;99.90;;;;;;5051031;28;20210;-60
2023/08/27 00:05:07;;;;;;;6.13;3.67;;;17.90;99.90;;;;;;5050962;28;20232;-60
2023/08/27 00:07:34;;;;;;;5.13;3.70;;;17.90;99.90;;;;;;5050410;28;20298;-61
2023/08/27 00:10:01;;;;;;;4.63;3.28;;;18.00;99.90;;;;;;5050811;28;20205;-60
2023/08/27 00:12:28;;;;;;;4.07;3.42;;;18.10;99.90;;;;;;5051054;28;20227;-60
2023/08/27 00:14:55;;;;;;;8.05;3.30;;;18.20;99.90;;;;;;5050796;28;20233;-61
2023/08/27 00:17:21;;;;;;;5.00;3.63;;;18.30;99.90;;;;;;5050765;28;20206;-60
2023/08/27 00:19:49;;;;;;;5.45;3.63;;;18.30;99.90;;;;;;5050748;28;20213;-61
2023/08/27 00:22:16;;;;;;;5.90;3.25;;;18.30;99.90;;;;;;5050837;28;20205;-60
2023/08/27 00:24:43;;;;;;;6.03;3.20;;;18.20;99.90;;;;;;5051098;28;20212;-61
2023/08/27 00:27:10;;;;;;;4.43;3.00;;;18.20;99.90;;;;;;5050390;28;20686;-61
2023/08/27 00:29:36;;;;;;;5.03;3.00;;;18.10;99.90;;;;;;5050921;28;20701;-61
2023/08/27 00:32:03;;;;;;;3.85;3.28;;;18.10;99.90;;;;;;5050695;28;20689;-61
2023/08/27 00:34:34;;;;;;;4.80;2.85;;;18.00;99.90;;;;;;5050776;28;20209;-61
2023/08/27 00:37:03;;;;;;;5.55;2.95;;;18.10;99.90;;;;;;5050206;28;20252;-61
2023/08/27 00:39:30;;;;;;;4.40;3.03;;;18.10;99.90;;;;;;5050841;28;20317;-60
2023/08/27 00:41:56;;;;;;;5.13;2.90;;;18.10;99.90;;;;;;5050623;28;20205;-61
2023/08/27 00:44:23;;;;;;;5.88;3.17;;;18.20;99.90;;;;;;5050527;28;20217;-61
2023/08/27 00:46:50;;;;;;;3.45;2.90;;;18.20;99.90;;;;;;5050248;28;20226;-60
2023/08/27 00:49:17;;;;;;;7.72;3.35;;;18.20;99.90;;;;;;5050595;28;20343;-61
2023/08/27 00:51:46;;;;;;;7.85;3.42;;;18.30;99.90;;;;;;5053502;28;20206;-61
2023/08/27 00:54:15;;;;;;;6.07;3.00;;;18.30;99.90;;;;;;5054215;28;20209;-61
2023/08/27 00:56:44;;;;;;;5.38;3.40;;;18.30;99.90;;;;;;5054172;28;20209;-61
2023/08/27 00:59:12;;;;;;;4.47;2.83;;;18.30;99.90;;;;;;5053853;28;20233;-61
2023/08/27 01:01:40;;;;;;;2.55;2.33;;;18.20;99.90;;;;;;5053972;28;20210;-61
2023/08/27 01:04:07;;;;;;;6.88;2.88;;;18.30;99.90;;;;;;5054091;28;20209;-60
2023/08/27 01:06:34;;;;;;;5.47;2.50;;;18.40;99.90;;;;;;5053845;28;20592;-59
2023/08/27 01:09:09;;;;;;;6.82;3.10;;;18.40;99.90;;;;;;5054469;28;20225;-59
2023/08/27 01:11:46;;;;;;;5.50;2.80;;;18.50;99.90;;;;;;5054030;28;20263;-61
2023/08/27 01:14:17;;;;;;;3.95;2.80;;;18.60;99.90;;;;;;5054099;28;20213;-60
2023/08/27 01:16:45;;;;;;;3.80;2.63;;;18.60;99.90;;;;;;5053305;28;20212;-61
2023/08/27 01:19:14;;;;;;;6.70;2.90;;;18.70;99.90;;;;;;5053655;28;20222;-61
2023/08/27 01:21:42;;;;;;;5.57;2.80;;;18.70;99.90;;;;;;5053731;28;20237;-60
2023/08/27 01:24:09;;;;;;;3.30;2.67;;;18.60;99.90;;;;;;5053549;28;20324;-60
2023/08/27 01:26:42;;;;;;;4.53;2.92;;;18.60;99.90;;;;;;5053014;28;20226;-61
2023/08/27 01:29:16;;;;;;;3.63;2.55;;;18.60;99.90;;;;;;5053182;28;20236;-61
2023/08/27 01:31:48;;;;;;;3.85;2.88;;;18.70;99.90;;;;;;5053792;28;20209;-60
2023/08/27 01:34:17;;;;;;;5.07;2.67;;;18.80;99.90;;;;;;5053576;28;20210;-61
2023/08/27 01:36:46;;;;;;;8.10;2.90;;;18.90;99.90;;;;;;5052977;28;20660;-61
2023/08/27 01:39:14;;;;;;;4.13;2.40;;;18.90;99.90;;;;;;5053217;28;20226;-59
2023/08/27 01:41:41;;;;;;;6.07;2.70;;;19.00;99.90;;;;;;5052995;28;20236;-59
2023/08/27 01:44:08;;;;;;;5.00;2.35;;;19.00;99.90;;;;;;5053318;28;20232;-60
2023/08/27 01:46:34;;;;;;;5.03;2.70;;;19.00;99.90;;;;;;5053149;28;20226;-60
2023/08/27 01:49:01;;;;;;;6.72;2.95;;;19.00;99.90;;;;;;5070323;23;20701;-61
2023/08/27 01:51:28;;;;;;;4.35;2.72;;;18.90;99.90;;;;;;5044632;28;20198;-63
2023/08/27 01:53:56;;;;;;;2.90;2.47;;;18.80;99.90;;;;;;5053168;28;20322;-62
2023/08/27 01:56:23;;;;;;;6.25;2.67;;;18.80;99.90;;;;;;5052430;28;20208;-63
2023/08/27 01:58:50;;;;;;;5.05;2.80;;;18.60;99.90;;;;;;5052803;28;20232;-61
2023/08/27 02:01:17;;;;;;;4.68;3.10;;;18.60;99.90;;;;;;5052652;28;20209;-61
2023/08/27 02:03:44;;;;;;;4.55;2.53;;;18.60;99.90;;;;;;5052552;28;20677;-61
2023/08/27 02:06:10;;;;;;;6.25;2.88;;;18.70;99.90;;;;;;5052302;28;20408;-61
2023/08/27 02:08:37;;;;;;;4.97;3.15;;;18.80;99.90;;;;;;5052561;28;20232;-62
2023/08/27 02:11:05;;;;;;;5.63;2.75;;;18.80;99.90;;;;;;5052519;28;20251;-61
2023/08/27 02:13:32;;;;;;;5.72;2.78;;;18.70;99.90;;;;;;5052807;28;20202;-63
2023/08/27 02:15:58;;;;;;;6.78;2.90;;;18.60;99.90;;;;;;5052296;28;20373;-62
2023/08/27 02:18:25;;;;;;;5.68;2.65;;;18.50;99.90;;;;;;5052580;28;20229;-62
2023/08/27 02:20:52;;;;;;;6.40;3.10;;;18.50;99.90;;;;;;5052278;28;20209;-62
2023/08/27 02:23:18;;;;;;;9.57;2.83;;;18.50;99.90;;;;;;5052041;28;20576;-62
2023/08/27 02:25:45;;;;;;;6.53;2.95;;;18.50;99.90;;;;;;5052466;28;20251;-62
2023/08/27 02:28:13;;;;;;;5.53;3.05;;;18.60;99.90;;;;;;5052077;28;20236;-62
2023/08/27 02:30:40;;;;;;;4.28;2.65;;;18.70;99.90;;;;;;5052303;28;20581;-62
2023/08/27 02:33:06;;;;;;;6.00;2.75;;;18.60;99.90;;;;;;5052314;28;20239;-62
2023/08/27 02:35:33;;;;;;;4.70;3.10;;;18.60;99.90;;;;;;5052217;28;20225;-62
2023/08/27 02:38:00;;;;;;;4.97;2.67;;;18.80;99.90;;;;;;5051806;28;20713;-62
2023/08/27 02:40:27;;;;;;;5.75;3.75;;;18.80;99.90;;;;;;5052152;28;20209;-62
2023/08/27 02:42:53;;;;;;;5.85;3.08;;;18.90;99.90;;;;;;5052118;28;20228;-62
2023/08/27 02:45:21;;;;;;;5.13;2.70;;;18.90;99.90;;;;;;5051942;28;20209;-63
2023/08/27 02:47:48;;;;;;;5.40;3.22;;;18.90;99.90;;;;;;5051409;28;20213;-63
2023/08/27 02:50:15;;;;;;;4.15;2.83;;;18.90;99.90;;;;;;5051806;28;20217;-62
2023/08/27 02:52:41;;;;;;;9.02;3.00;;;18.90;99.90;;;;;;5051881;28;20213;-62
2023/08/27 02:55:09;;;;;;;7.30;3.60;;;18.90;99.90;;;;;;5051591;28;20279;-63
2023/08/27 02:57:36;;;;;;;7.25;3.08;;;18.80;99.90;;;;;;5051435;28;20201;-62
2023/08/27 03:00:03;;;;;;;6.28;3.47;;;18.80;99.90;;;;;;5051726;28;20236;-62
2023/08/27 03:02:31;;;;;;;7.07;3.08;;;18.80;99.90;;;;;;5051678;28;20209;-62
2023/08/27 03:04:59;;;;;;;4.40;3.20;;;18.70;99.90;;;;;;5051459;28;20209;-61
2023/08/27 03:07:26;;;;;;;7.53;3.47;;;18.70;99.90;;;;;;5051389;28;20232;-61
2023/08/27 03:09:53;;;;;;;8.82;3.20;;;18.60;99.90;;;;;;5051468;28;20237;-62
2023/08/27 03:12:19;;;;;;;6.35;3.45;;;18.50;99.90;;;;;;5050949;28;20637;-62
2023/08/27 03:14:46;;;;;;;4.38;3.17;;;18.50;99.90;;;;;;5051136;28;20209;-62
2023/08/27 03:17:13;;;;;;;7.15;3.28;;;18.50;99.90;;;;;;5051031;28;20210;-62
2023/08/27 03:19:41;;;;;;;5.70;2.70;;;18.30;99.90;;;;;;5050996;28;20282;-61
2023/08/27 03:22:08;;;;;;;5.32;2.88;;;18.30;99.90;;;;;;5051327;28;20585;-61
2023/08/27 03:24:35;;;;;;;5.63;2.80;;;18.30;99.90;;;;;;5051358;28;20202;-63
2023/08/27 03:27:01;;;;;;;4.60;2.78;;;18.30;99.90;;;;;;5050808;28;20225;-62
2023/08/27 03:29:29;;;;;;;4.88;3.10;;;18.30;99.90;;;;;;5050984;28;20583;-62
2023/08/27 03:31:56;;;;;;;5.05;3.15;;;18.40;99.90;;;;;;5051102;28;20292;-63
2023/08/27 03:34:23;;;;;;;4.60;3.45;;;18.40;99.90;;;;;;5051606;28;20256;-62
2023/08/27 03:36:51;;;;;;;4.40;2.88;;;18.50;99.90;;;;;;5051125;28;20202;-62
2023/08/27 03:39:17;;;;;;;7.22;2.92;;;18.50;99.90;;;;;;5051348;28;20241;-62
2023/08/27 03:41:45;;;;;;;6.32;3.13;;;18.50;99.90;;;;;;5051512;28;20209;-62
2023/08/27 03:44:11;;;;;;;7.40;3.25;;;18.50;99.90;;;;;;5051117;28;20699;-62
2023/08/27 03:46:40;;;;;;;4.18;3.03;;;18.50;99.90;;;;;;5050626;28;20226;-62
2023/08/27 03:49:07;;;;;;;4.45;2.90;;;18.40;99.90;;;;;;5050833;28;20639;-62
2023/08/27 03:51:34;;;;;;;5.85;3.42;;;18.30;99.90;;;;;;5050956;28;20205;-62
2023/08/27 03:54:02;;;;;;;5.90;3.08;;;18.30;99.90;;;;;;5051079;28;20266;-61
2023/08/27 03:56:29;;;;;;;6.85;2.90;;;18.10;99.90;;;;;;5050445;28;20202;-62
2023/08/27 03:58:56;;;;;;;4.53;3.20;;;18.00;99.90;;;;;;5050721;28;20226;-62
2023/08/27 04:01:23;;;;;;;5.47;3.10;;;18.00;99.90;;;;;;5050675;28;20216;-61
2023/08/27 04:03:50;;;;;;;3.92;2.75;;;18.00;99.90;;;;;;5050803;28;20704;-62
2023/08/27 04:06:16;;;;;;;4.85;3.03;;;18.10;99.90;;;;;;5050713;28;20237;-62
2023/08/27 04:08:43;;;;;;;9.63;8.32;;;18.20;99.90;;;;;;5051035;28;20225;-62
2023/08/27 04:11:12;;;;;;;6.03;3.75;;;18.30;99.90;;;;;;5050629;28;20283;-62
2023/08/27 04:13:39;;;;;;;3.58;2.78;;;18.20;99.90;;;;;;5050613;28;20251;-62
2023/08/27 04:16:07;;;;;;;6.80;3.08;;;18.20;99.90;;;;;;5050405;28;20205;-62
2023/08/27 04:18:34;;;;;;;5.68;3.33;;;18.20;99.90;;;;;;5050548;28;20713;-62
2023/08/27 04:21:01;;;;;;;4.43;3.08;;;18.20;99.90;;;;;;5050700;28;20202;-62
2023/08/27 04:23:28;;;;;;;3.40;3.10;;;18.10;99.90;;;;;;5050572;28;20213;-62
2023/08/27 04:25:55;;;;;;;3.78;3.10;;;18.00;99.90;;;;;;5053749;28;20237;-62
2023/08/27 04:28:23;;;;;;;3.63;3.08;;;18.00;99.90;;;;;;5054113;28;20232;-62
2023/08/27 04:30:51;;;;;;;5.50;3.55;;;17.90;99.90;;;;;;5054637;28;20205;-62
2023/08/27 04:33:18;;;;;;;5.82;3.25;;;18.00;99.90;;;;;;5054509;28;20579;-61
2023/08/27 04:35:48;;;;;;;5.60;3.67;;;18.10;99.90;;;;;;5054326;28;20324;-62
2023/08/27 04:38:14;;;;;;;11.45;8.27;;;18.20;99.90;;;;;;5054278;28;20317;-62
2023/08/27 04:40:41;;;;;;;7.78;4.88;;;18.20;99.90;;;;;;5054326;28;20213;-62
2023/08/27 04:43:08;;;;;;;4.22;3.67;;;18.30;99.90;;;;;;5054156;28;20201;-63
2023/08/27 04:45:36;;;;;;;3.75;3.38;;;18.40;99.90;;;;;;5054497;28;20213;-62
2023/08/27 04:48:03;;;;;;;5.38;3.30;;;18.40;99.90;;;;;;5053804;28;20735;-62
2023/08/27 04:50:29;;;;;;;5.07;3.33;;;18.30;99.90;;;;;;5054073;28;20631;-62
2023/08/27 04:52:56;;;;;;;5.32;3.55;;;18.20;99.90;;;;;;5054082;28;20620;-62
2023/08/27 04:55:23;;;;;;;4.63;3.72;;;18.00;99.90;;;;;;5053787;28;20205;-62
2023/08/27 04:57:50;;;;;;;4.57;3.78;;;17.90;99.90;;;;;;5053919;28;20574;-61
2023/08/27 05:00:20;;;;;;;4.82;3.40;;;18.00;99.90;;;;;;5054012;28;20216;-62
2023/08/27 05:02:48;;;;;;;8.43;4.55;;;18.00;99.90;;;;;;5053951;28;20580;-61
2023/08/27 05:05:15;;;;;;;4.45;4.05;;;18.00;99.90;;;;;;5053114;28;20615;-62
2023/08/27 05:07:42;;;;;;;6.00;4.53;;;18.10;99.90;;;;;;5053109;28;20229;-62
2023/08/27 05:10:09;;;;;;;7.53;6.53;;;18.20;99.90;;;;;;5053230;28;20232;-62
2023/08/27 05:12:36;;;;;;;7.32;4.40;;;18.20;99.90;;;;;;5053702;28;20688;-62
2023/08/27 05:15:03;;;;;;;5.22;4.40;;;18.30;99.90;;;;;;5053716;28;20696;-62
2023/08/27 05:17:30;;;;;;;5.78;4.60;;;18.30;99.90;;;;;;5053433;28;20236;-61
2023/08/27 05:19:58;;;;;;;6.72;4.40;;;18.40;99.90;;;;;;5053527;28;20681;-60
2023/08/27 05:22:25;;;;;;;10.07;3.90;;;18.50;99.90;;;;;;5053432;28;20216;-61
2023/08/27 05:24:52;;;;;;;4.25;3.85;;;18.50;99.90;;;;;;5053729;28;20209;-62
2023/08/27 05:27:18;;;;;;;8.07;5.90;;;18.50;99.90;;;;;;5053111;28;20621;-62
2023/08/27 05:29:46;;;;;;;6.93;5.50;;;18.60;99.90;;;;;;5053556;28;20720;-62
2023/08/27 05:32:13;;;;;;;6.85;3.60;;;18.70;99.90;;;;;;5053612;28;20202;-62
2023/08/27 05:34:40;;;;;;;5.88;4.22;;;18.80;99.90;;;;;;5053545;28;20228;-62
2023/08/27 05:37:08;;;;;;;13.27;5.78;;;18.90;99.90;;;;;;5052104;28;20669;-62
2023/08/27 05:39:34;;;;;;;5.57;4.40;;;18.90;99.90;;;;;;5053236;28;20233;-62
2023/08/27 05:42:01;;;;;;;4.75;3.65;;;18.90;99.90;;;;;;5053515;28;20206;-62
2023/08/27 05:44:28;;;;;;;8.20;5.45;;;18.90;99.90;;;;;;5053357;28;20206;-62
2023/08/27 05:46:55;;;;;;;6.15;4.30;;;19.00;99.90;;;;;;5052804;28;20229;-62
2023/08/27 05:49:21;;;;;;;5.03;4.03;;;19.00;99.90;;;;;;5052758;28;20233;-61
2023/08/27 05:51:48;;;;;;;4.95;4.30;;;19.10;99.90;;;;;;5053117;28;20213;-62
2023/08/27 05:54:16;;;;;;;9.77;4.47;;;19.20;99.90;;;;;;5052950;28;20700;-62
2023/08/27 05:56:43;;;;;;;14.63;8.75;;;19.20;99.90;;;;;;5052483;28;20623;-62
2023/08/27 05:59:12;;;;;;;6.55;3.85;;;19.30;99.90;;;;;;5052445;28;20320;-62
2023/08/27 06:01:38;;;;;;;5.75;5.07;;;19.40;99.90;;;;;;5052364;28;20320;-62
2023/08/27 06:04:05;;;;;;;7.13;5.40;;;19.40;99.90;;;;;;5052435;28;20209;-63
2023/08/27 06:06:32;;;;;;;5.90;4.18;;;19.50;99.90;;;;;;5052738;28;20813;-62
2023/08/27 06:08:58;;;;;;;6.85;4.22;;;19.50;99.90;;;;;;5052657;28;20230;-62
2023/08/27 06:11:26;;;;;;;7.40;5.25;;;19.40;99.90;;;;;;5052698;28;20201;-62
2023/08/27 06:13:53;;;;;;;5.72;3.90;;;19.40;99.90;;;;;;5052525;28;20206;-62
2023/08/27 06:16:20;;;;;;;4.97;3.70;;;19.50;99.90;;;;;;5052374;28;20496;-62
2023/08/27 06:18:47;;;;;;;4.13;3.70;;;19.60;99.90;;;;;;5052406;28;20221;-62
2023/08/27 06:21:13;;;;;;;5.05;4.30;;;19.70;99.90;;;;;;5052634;28;20245;-62
2023/08/27 06:23:41;;;;;;;4.97;3.85;;;19.80;99.90;;;;;;5052596;28;20228;-63
2023/08/27 06:26:07;;;;;;;6.30;4.43;;;19.80;99.90;;;;;;5052359;28;20216;-61
2023/08/27 06:28:35;;;;;;;4.10;3.20;;;19.90;99.90;;;;;;5051999;28;20263;-63
2023/08/27 06:31:03;;;;;;;5.63;3.70;;;19.90;99.90;;;;;;5052117;28;20622;-61
2023/08/27 06:33:29;;;;;;;4.25;3.70;;;19.90;99.90;;;;;;5052185;28;20205;-61
2023/08/27 06:35:56;;;;;;;5.00;4.30;;;19.90;99.90;;;;;;5052058;28;20213;-62
2023/08/27 06:38:23;;;;;;;7.72;5.70;;;20.00;99.90;;;;;;5052237;28;20237;-63
2023/08/27 06:40:49;;;;;;;5.75;3.72;;;20.10;99.90;;;;;;5052112;28;20210;-62
2023/08/27 06:43:16;;;;;;;3.97;3.58;;;20.20;99.90;;;;;;5052277;28;20213;-62
2023/08/27 06:45:44;;;;;;;4.90;3.65;;;20.20;99.90;;;;;;5052095;28;20205;-62
2023/08/27 06:48:11;;;;;;;5.10;3.72;;;20.30;99.90;;;;;;5050768;28;20240;-63
2023/08/27 06:50:38;;;;;;;5.03;3.95;;;20.30;99.90;;;;;;5052299;28;20296;-62
2023/08/27 06:53:04;;;;;;;12.32;11.20;;;20.30;99.90;;;;;;5051975;28;20661;-62
2023/08/27 06:55:31;;;;;;;6.10;4.35;;;20.30;99.90;;;;;;5051997;28;20693;-61
2023/08/27 06:57:58;;;;;;;4.38;3.70;;;20.40;99.90;;;;;;5051990;28;20265;-62
2023/08/27 07:00:25;;;;;;;4.90;3.95;;;20.40;99.90;;;;;;5051659;28;20210;-62
2023/08/27 07:02:54;;;;;;;5.05;3.60;;;20.40;99.90;;;;;;5052125;28;20259;-63
2023/08/27 07:05:21;;;;;;;10.55;9.52;;;20.40;99.90;;;;;;5052245;28;20205;-63
2023/08/27 07:07:48;;;;;;;14.40;12.80;;;20.50;99.90;;;;;;5051486;28;20241;-63
2023/08/27 07:10:15;;;;;;;4.35;3.42;;;20.50;99.90;;;;;;5051625;28;20300;-62
2023/08/27 07:12:42;;;;;;;5.47;4.10;;;20.60;99.90;;;;;;5051675;28;20613;-62
2023/08/27 07:15:09;;;;;;;2.95;2.45;;;20.60;99.90;;;;;;5051476;28;20210;-62
2023/08/27 07:17:38;;;;;;;4.60;2.92;;;20.60;99.90;;;;;;5051012;28;20197;-62
2023/08/27 07:20:09;;;;;;;4.50;2.15;;;20.60;99.90;;;;;;5051571;28;20673;-62
2023/08/27 07:22:36;;;;;;;2.67;2.20;;;20.70;99.90;;;;;;5051587;28;20239;-62
2023/08/27 07:25:02;;;;;;;4.43;3.38;;;20.70;99.90;;;;;;5051570;28;20213;-61
2023/08/27 07:27:29;;;;;;;2.35;1.73;;;20.70;99.90;;;;;;5051169;28;20276;-63
2023/08/27 07:29:56;;;;;;;2.90;1.90;;;20.80;99.90;;;;;;5051483;28;20237;-61
2023/08/27 07:32:23;;;;;;;4.85;2.50;;;20.90;99.90;;;;;;5051387;28;20201;-61
2023/08/27 07:34:50;;;;;;;2.50;1.92;;;21.00;99.90;;;;;;5051567;28;20209;-62
2023/08/27 07:37:18;;;;;;;2.20;1.90;;;21.00;99.90;;;;;;5050805;28;20635;-61
2023/08/27 07:39:45;;;;;;;2.88;2.58;;;21.00;99.90;;;;;;5051277;28;20228;-61
2023/08/27 07:42:12;;;;;;;2.35;1.90;;;21.00;99.90;;;;;;5051094;28;20202;-62
2023/08/27 07:44:38;;;;;;;5.97;1.83;;;21.20;99.90;;;;;;5051122;28;20205;-61
2023/08/27 07:47:05;;;;;;;3.67;2.03;;;21.40;99.90;;;;;;5050793;28;20213;-62
2023/08/27 07:49:32;;;;;;;2.13;1.80;;;21.50;99.90;;;;;;5082971;23;20267;-63
2023/08/27 07:51:59;;;;;;;3.65;1.60;;;21.60;99.90;;;;;;5065162;28;20661;-63
2023/08/27 07:54:27;;;;;;;2.72;1.77;;;21.70;99.90;;;;;;5071338;28;20205;-62
2023/08/27 07:56:54;;;;;;;5.65;2.00;;;21.70;99.90;;;;;;5071214;28;20228;-62
2023/08/27 07:59:21;;;;;;;9.40;8.40;;;21.70;99.90;;;;;;5072791;28;20235;-64
2023/08/27 08:01:48;;;;;;;5.63;2.80;;;21.80;99.90;;;;;;5075614;28;20236;-63
2023/08/27 08:04:15;;;;;;;2.70;1.90;;;21.80;99.90;;;;;;5075668;28;20239;-63
2023/08/27 08:06:41;;;;;;;2.50;1.83;;;21.90;99.90;;;;;;5075257;28;20204;-63
2023/08/27 08:09:08;;;;;;;2.55;1.88;;;22.00;99.90;;;;;;5075030;28;20228;-63
2023/08/27 08:11:36;;;;;;;2.00;1.48;;;22.10;99.90;;;;;;5075132;28;20208;-63
2023/08/27 08:14:03;;;;;;;3.50;2.03;;;22.20;99.90;;;;;;5075137;28;20212;-63
2023/08/27 08:16:29;;;;;;;3.67;1.85;;;22.20;99.90;;;;;;5074875;28;20208;-63
2023/08/27 08:18:56;;;;;;;3.97;1.88;;;22.20;99.90;;;;;;5075781;28;20228;-63
2023/08/27 08:21:23;;;;;;;3.53;2.47;;;22.20;99.90;;;;;;5075369;28;20208;-63
2023/08/27 08:23:50;;;;;;;2.78;1.85;;;22.20;99.90;;;;;;5075127;28;20205;-62
2023/08/27 08:26:16;;;;;;;2.88;1.70;;;22.20;99.90;;;;;;5075204;28;20652;-63
2023/08/27 08:28:45;;;;;;;1.52;1.42;;;22.10;99.90;;;;;;5074915;28;20240;-61
2023/08/27 08:31:12;;;;;;;2.17;1.58;;;22.00;99.90;;;;;;5075406;28;20585;-62
2023/08/27 08:33:38;;;;;;;2.60;1.48;;;22.00;99.90;;;;;;5075667;28;20205;-62
2023/08/27 08:36:05;;;;;;;2.78;1.50;;;22.00;99.90;;;;;;5075389;28;20569;-62
2023/08/27 08:38:33;;;;;;;1.65;1.25;;;22.20;99.90;;;;;;5075803;28;20220;-63
2023/08/27 08:41:03;;;;;;;2.83;1.90;;;22.30;99.90;;;;;;5077524;28;20235;-62
2023/08/27 08:43:38;;;;;;;2.47;1.73;;;22.50;99.90;;;;;;5077911;28;20212;-62
2023/08/27 08:46:06;;;;;;;2.60;1.80;;;22.50;99.90;;;;;;5077335;28;20227;-63
2023/08/27 08:48:38;;;;;;;2.97;1.40;;;22.50;99.90;;;;;;5075130;28;20237;-63
2023/08/27 08:51:06;;;;;;;2.92;1.40;;;22.40;99.90;;;;;;5075301;28;20188;-62
2023/08/27 08:53:37;;;;;;;1.42;1.30;;;22.40;99.90;;;;;;5075212;28;20217;-62
2023/08/27 08:56:07;;;;;;;2.38;1.40;;;22.40;99.90;;;;;;5074474;28;20237;-62
2023/08/27 08:58:36;;;;;;;2.88;1.40;;;22.50;99.90;;;;;;5074790;28;20256;-63
2023/08/27 09:01:04;;;;;;;3.95;1.30;;;22.60;99.90;;;;;;5075544;28;20213;-64
2023/08/27 09:03:33;;;;;;;2.05;1.60;;;22.70;99.90;;;;;;5074705;28;20235;-63
2023/08/27 09:06:00;;;;;;;2.83;1.80;;;22.60;99.90;;;;;;5075153;28;20209;-62
2023/08/27 09:08:29;;;;;;;2.30;1.65;;;22.80;99.90;;;;;;5075038;28;20225;-64
2023/08/27 09:10:57;;;;;;;8.60;2.22;;;22.90;99.90;;;;;;5074011;28;20213;-63
2023/08/27 09:13:23;;;;;;;3.28;1.67;;;23.10;99.90;;;;;;5074778;28;20205;-63
2023/08/27 09:15:51;;;;;;;3.22;1.77;;;23.30;99.90;;;;;;5073689;28;20208;-63
2023/08/27 09:18:18;;;;;;;2.00;1.45;;;23.50;99.90;;;;;;5073827;28;20769;-64
2023/08/27 09:20:46;;;;;;;5.20;1.55;;;23.60;99.90;;;;;;5074227;28;20614;-62
2023/08/27 09:23:13;;;;;;;3.83;1.33;;;23.70;99.90;;;;;;5074229;28;20577;-63
2023/08/27 09:25:40;;;;;;;2.58;1.42;;;23.60;99.90;;;;;;5073506;28;20201;-64
2023/08/27 09:28:06;;;;;;;1.88;1.67;;;23.40;99.90;;;;;;5073542;28;20229;-63
2023/08/27 09:30:34;;;;;;;3.05;1.80;;;23.40;99.90;;;;;;5074421;28;20213;-64
2023/08/27 09:33:01;;;;;;;2.20;1.60;;;23.30;99.90;;;;;;5074368;28;20263;-63
2023/08/27 09:35:37;;;;;;;4.32;3.00;;;23.20;99.90;;;;;;5073828;28;20230;-64
2023/08/27 09:38:06;;;;;;;2.20;1.70;;;23.20;99.90;;;;;;5073515;28;20229;-63
2023/08/27 09:40:33;;;;;;;2.67;1.63;;;23.30;99.90;;;;;;5073692;28;20209;-63
2023/08/27 09:43:05;;;;;;;3.85;1.60;;;23.40;99.90;;;;;;5073326;28;20299;-62
2023/08/27 09:45:32;;;;;;;4.22;1.73;;;23.70;99.90;;;;;;5073174;28;20600;-64
2023/08/27 09:47:59;;;;;;;2.95;1.50;;;24.10;99.90;;;;;;5054673;28;20256;-68
2023/08/27 09:50:28;;;;;;;2.80;1.40;;;24.50;99.90;;;;;;5052642;28;20248;-71
2023/08/27 09:53:06;;;;;;;3.38;1.42;;;24.90;99.90;;;;;;5052230;28;20687;-63
2023/08/27 09:55:33;;;;;;;2.00;1.50;;;24.80;99.90;;;;;;5052658;28;20227;-68
2023/08/27 09:58:00;;;;;;;2.17;1.50;;;24.60;99.90;;;;;;5052311;28;20209;-68
2023/08/27 10:00:28;;;;;;;2.05;1.75;;;24.50;99.90;;;;;;5052529;28;20206;-67
2023/08/27 10:02:56;;;;;;;2.70;1.77;;;24.60;99.90;;;;;;5052198;28;20216;-68
2023/08/27 10:05:27;;;;;;;2.33;1.38;;;24.70;99.90;;;;;;5052886;28;20201;-69
2023/08/27 10:07:58;;;;;;;2.75;1.52;;;24.60;99.90;;;;;;5052079;28;20487;-69
2023/08/27 10:10:27;;;;;;;1.95;1.52;;;24.50;99.90;;;;;;5052097;28;20558;-67
2023/08/27 10:12:55;;;;;;;7.28;6.53;;;24.50;99.90;;;;;;5051869;28;20235;-68
2023/08/27 10:15:23;;;;;;;4.05;1.70;;;24.50;99.90;;;;;;5051544;28;20673;-70
2023/08/27 10:17:51;;;;;;;6.00;3.45;;;24.50;99.90;;;;;;5051261;28;20211;-69
2023/08/27 10:20:19;;;;;;;5.78;2.50;;;24.10;99.90;;;;;;5051366;28;20217;-67
2023/08/27 10:22:47;;;;;;;5.88;3.53;;;23.80;99.90;;;;;;5050997;28;20666;-68
2023/08/27 10:25:15;;;;;;;3.10;1.73;;;23.70;99.90;;;;;;5051640;28;20233;-66
2023/08/27 10:27:44;;;;;;;3.58;2.17;;;23.70;99.90;;;;;;5050900;28;20248;-67
2023/08/27 10:30:13;;;;;;;3.22;1.75;;;23.70;99.90;;;;;;5050967;28;20312;-66
2023/08/27 10:32:39;;;;;;;1.98;1.48;;;23.90;99.90;;;;;;5052090;28;20584;-65
2023/08/27 10:35:08;;;;;;;2.60;1.85;;;24.40;99.90;;;;;;5066060;28;20209;-67
2023/08/27 10:37:37;;;;;;;3.20;1.88;;;24.80;99.90;;;;;;5071097;28;20205;-67
2023/08/27 10:40:08;;;;;;;4.65;2.00;;;25.00;99.90;;;;;;5071154;28;20247;-66
2023/08/27 10:42:37;;;;;;;2.58;2.05;;;25.00;99.90;;;;;;5071366;28;20212;-67
2023/08/27 10:45:15;;;;;;;2.75;1.73;;;25.20;99.90;;;;;;5071185;28;20212;-67
2023/08/27 10:47:43;;;;;;;1.65;1.50;;;25.10;99.90;;;;;;5069930;28;20201;-67
2023/08/27 10:50:10;;;;;;;6.28;2.70;;;25.00;99.90;;;;;;5052001;28;20511;-63
2023/08/27 10:52:50;;;;;;;4.07;2.90;;;25.10;99.90;;;;;;5052244;28;20245;-62
2023/08/27 10:55:21;;;;;;;2.70;1.85;;;25.20;99.90;;;;;;5051892;28;20209;-63
2023/08/27 10:57:48;;;;;;;6.05;2.28;;;25.30;99.90;;;;;;5051970;28;20677;-64
2023/08/27 11:00:17;;;;;;;4.07;2.03;;;25.40;99.90;;;;;;5052173;28;20205;-63
2023/08/27 11:02:57;;;;;;;3.28;1.65;;;25.30;99.90;;;;;;5052250;28;20209;-64
2023/08/27 11:05:27;;;;;;;3.60;1.60;;;25.60;99.90;;;;;;5052384;28;20209;-63
2023/08/27 11:07:58;;;;;;;2.85;1.42;;;26.10;99.90;;;;;;5051635;28;20233;-64
2023/08/27 11:10:31;;;;;;;2.15;1.58;;;26.70;99.90;;;;;;5052123;28;20644;-63
2023/08/27 11:12:58;;;;;;;2.50;1.80;;;26.80;99.90;;;;;;5052606;28;20674;-62
2023/08/27 11:15:31;;;;;;;5.45;4.25;;;26.60;99.90;;;;;;5052816;28;20634;-64
2023/08/27 11:17:58;;;;;;;4.82;2.75;;;26.50;99.90;;;;;;5051792;28;20557;-63
2023/08/27 11:20:27;;;;;;;6.40;2.33;;;26.60;99.90;;;;;;5052379;28;20201;-63
2023/08/27 11:22:58;;;;;;;3.13;1.40;;;26.70;99.90;;;;;;5051965;28;20598;-63
2023/08/27 11:25:27;;;;;;;5.50;1.48;;;26.80;99.90;;;;;;5051784;28;20212;-63
2023/08/27 11:27:55;;;;;;;2.97;1.65;;;26.90;99.90;;;;;;5051489;28;20202;-63
2023/08/27 11:30:24;;;;;;;3.78;1.92;;;26.80;99.90;;;;;;5051804;28;20230;-64
2023/08/27 11:32:52;;;;;;;3.25;1.70;;;26.70;99.90;;;;;;5051813;28;20205;-63
2023/08/27 11:35:24;;;;;;;5.22;2.05;;;26.50;99.90;;;;;;5050868;28;20201;-64
2023/08/27 11:37:51;;;;;;;3.20;1.90;;;26.50;99.90;;;;;;5051701;28;20259;-64
2023/08/27 11:40:18;;;;;;;2.53;1.70;;;26.40;99.90;;;;;;5051680;28;20202;-62
2023/08/27 11:42:50;;;;;;;2.78;1.70;;;26.40;99.90;;;;;;5051903;28;20210;-63
2023/08/27 11:45:17;;;;;;;3.08;1.67;;;26.50;99.90;;;;;;5051598;28;20233;-63
2023/08/27 11:47:44;;;;;;;4.50;1.90;;;26.70;99.90;;;;;;5051000;28;20205;-63
2023/08/27 11:50:13;;;;;;;2.50;1.73;;;26.90;99.90;;;;;;5051328;28;20233;-63
2023/08/27 11:52:40;;;;;;;5.20;1.75;;;26.90;99.90;;;;;;5051483;28;20202;-64
2023/08/27 11:55:08;;;;;;;3.58;1.92;;;26.90;99.90;;;;;;5051341;28;20236;-63
2023/08/27 11:57:35;;;;;;;7.63;4.80;;;26.90;99.90;;;;;;5051194;28;20271;-63
2023/08/27 12:00:10;;;;;;;4.30;1.65;;;26.90;99.90;;;;;;5051571;28;20622;-64
2023/08/27 12:02:38;;;;;;;5.60;1.90;;;26.90;99.90;;;;;;5051259;28;20727;-62
2023/08/27 12:05:06;;;;;;;3.97;1.85;;;26.60;99.90;;;;;;5051576;28;20309;-62
2023/08/27 12:07:35;;;;;;;2.70;1.50;;;26.50;99.90;;;;;;5050807;28;20681;-63
2023/08/27 12:10:07;;;;;;;3.53;2.40;;;26.60;99.90;;;;;;5050762;28;20239;-64
2023/08/27 12:12:37;;;;;;;3.90;1.80;;;26.60;99.90;;;;;;5051041;28;20205;-64
2023/08/27 12:15:04;;;;;;;3.58;1.50;;;26.60;99.90;;;;;;5051246;28;20241;-62
2023/08/27 12:17:35;;;;;;;3.03;1.77;;;26.60;99.90;;;;;;5051326;28;20209;-62
2023/08/27 12:20:03;;;;;;;2.10;1.67;;;26.70;99.90;;;;;;5051089;28;20224;-61
2023/08/27 12:22:30;;;;;;;2.47;1.90;;;26.70;99.90;;;;;;5051075;28;20212;-63
2023/08/27 12:25:01;;;;;;;5.85;4.10;;;26.80;99.90;;;;;;5050702;28;20202;-63
2023/08/27 12:27:29;;;;;;;6.03;2.08;;;26.80;99.90;;;;;;5050403;28;20218;-63
2023/08/27 12:29:55;;;;;;;4.03;1.80;;;27.10;99.90;;;;;;5050899;28;20652;-62
2023/08/27 12:32:25;;;;;;;4.13;1.75;;;27.20;99.90;;;;;;5051340;28;20210;-63
2023/08/27 12:34:53;;;;;;;3.03;1.70;;;27.20;99.90;;;;;;5051172;28;20693;-63
2023/08/27 12:37:21;;;;;;;4.88;1.60;;;27.40;99.90;;;;;;5050293;28;20670;-63
2023/08/27 12:39:48;;;;;;;4.00;1.55;;;27.30;99.90;;;;;;5050923;28;20239;-64
2023/08/27 12:42:16;;;;;;;5.47;2.67;;;27.20;99.90;;;;;;5051514;28;20210;-64
2023/08/27 12:44:44;;;;;;;4.78;3.15;;;27.10;99.90;;;;;;5051530;28;20217;-64
2023/08/27 12:47:12;;;;;;;3.45;2.00;;;26.80;99.90;;;;;;5055043;28;20237;-64